EGGD/BRS METAR and TAF weather

Enter ICAO airport designator
Station Type Date Time Source
EGGD METAR 2019/04/25 21:20 UTC NOAA

EGGD 252120Z AUTO 19007KT 9999 //////TCU 08/06 Q1003


Station Type Date Time Source
EGGD Decoded METAR 2019/04/25 21:20 UTC NOAA

Bristol / Lulsgate , United Kingdom (EGGD) 51-23N 002-43W
Apr 25, 2019 - 05:20 PM EDT / 2019.04.25 2120 UTC
Wind: from the S (190 degrees) at 8 MPH (7 KT):0
Visibility: greater than 7 mile(s):0
Weather: Towering cumulus clouds observed
Temperature: 46 F (8 C)
Dew Point: 42 F (6 C)
Relative Humidity: 87%
Pressure (altimeter): 29.62 in. Hg (1003 hPa)
ob: EGGD 252120Z AUTO 19007KT 9999 //////TCU 08/06 Q1003
cycle: 21

Station Type Date Time Source
EGGD TAF 2019/04/25 18:09 UTC NOAA

TAF EGGD 251705Z 2518/2618 17006KT 9999 SCT030
BECMG 2608/2611 25012KT 8000 -RA PROB30
TEMPO 2608/2613 RA BKN009
BECMG 2611/2613 9999 NSW PROB40
TEMPO 2613/2618 8000 -RA BKN012

Example: see airport list